Latest Weather Observations for Red Rocks Point

IDW60801

Issued at 11:35 pm WST Friday 25 July 2014 (issued every 30 minutes, with the page automatically refreshed every 10 minutes)

About weather observations | Map of weather stations | Latest weather observations for WA | Other Formats
Station Details ID: 011053 Name: RED ROCKS POINT Lat: -32.20 Lon: 127.53 Height: 3.1 m
Data from the previous 72 hours. | See also: Recent months for locations in Western Australia
Date/Time
WST
Temp
°C
App
Temp
°C
Dew
Point
Rel
Hum
%
Delta-T
°C
Wind Press
QNH
hPa
Press
MSL
hPa
Rain
since 9 am
mm
Dir
 
Spd
km/h
Gust
km/h
Spd
kts
Gust
kts
25/11:30pm 7.3 3.9 6.1 92 0.5 N 13 15 7 8 1023.9 - 0.0
25/11:00pm 8.3 5.2 7.1 92 0.6 N 13 15 7 8 1024.1 - 0.0
25/10:30pm 8.9 5.9 7.7 92 0.6 N 13 17 7 9 1024.3 - 0.0
25/10:00pm 9.0 6.0 7.8 92 0.6 N 13 17 7 9 1024.3 - 0.0
25/09:30pm 9.0 6.0 7.8 92 0.6 N 13 15 7 8 1024.3 - 0.0
25/09:00pm 9.3 6.4 8.1 92 0.6 N 13 17 7 9 1024.3 1024.3 0.0
25/08:30pm 9.5 6.6 8.3 92 0.6 N 13 15 7 8 1024.3 - 0.0
25/08:00pm 9.9 7.1 8.7 92 0.6 N 13 17 7 9 1023.9 - 0.0
25/07:30pm 9.9 7.5 8.7 92 0.6 NNE 11 13 6 7 1023.7 - 0.0
25/07:00pm 9.9 9.6 8.5 91 0.7 CALM 0 0 0 0 1023.3 - 0.0
25/06:30pm 9.6 9.1 8.0 90 0.8 CALM 0 0 0 0 1023.1 - 0.0
25/06:00pm 10.0 9.6 8.1 88 0.9 CALM 0 0 0 0 1023.0 1023.0 0.0
25/05:30pm 10.6 10.3 8.5 87 1.0 CALM 0 0 0 0 1022.7 - 0.0
25/05:00pm 11.3 11.0 8.5 83 1.4 CALM 0 0 0 0 1022.5 - 0.0
25/04:30pm 13.4 12.1 9.8 79 1.8 SSW 7 9 4 5 1022.4 - 0.0
25/04:00pm 14.2 12.1 9.8 75 2.3 SSW 11 13 6 7 1022.3 - 0.0
25/03:30pm 15.2 13.3 10.4 73 2.5 S 11 13 6 7 1022.0 - 0.0
25/03:00pm 14.6 12.6 10.2 75 2.3 SSW 11 15 6 8 1022.1 1022.1 0.0
25/02:30pm 15.0 13.1 10.4 74 2.4 SSW 11 15 6 8 1022.0 - 0.0
25/02:00pm 15.4 13.1 10.6 73 2.5 SW 13 19 7 10 1021.9 - 0.0
25/01:30pm 16.2 13.1 10.3 68 3.1 SSW 17 20 9 11 1021.9 - 0.0
25/01:00pm 16.2 13.3 9.6 65 3.4 SW 15 19 8 10 1022.1 - 0.0
25/12:30pm 16.3 13.0 9.5 64 3.5 SSW 17 20 9 11 1022.0 - 0.0
25/12:00pm 16.2 13.2 9.4 64 3.5 SW 15 20 8 11 1022.2 1022.2 0.0
25/11:30am 16.0 12.7 9.4 65 3.4 SW 17 20 9 11 1022.5 - 0.0
25/11:00am 16.2 13.5 10.3 68 3.1 WSW 15 20 8 11 1022.9 - 0.0
25/10:30am 15.5 12.7 10.1 70 2.8 WSW 15 19 8 10 1023.2 - 0.0
25/10:00am 14.5 12.3 10.9 79 1.9 WSW 13 20 7 11 1023.3 - 0.0
25/09:30am 14.0 12.8 12.7 92 0.7 NW 11 15 6 8 1023.3 - 0.0
25/09:00am 13.1 11.8 12.5 96 0.3 NW 11 15 6 8 1023.1 1023.1 4.2
25/08:30am 11.3 9.1 10.7 96 0.3 NW 13 19 7 10 1023.0 - 4.2
25/08:00am 10.0 7.0 9.4 96 0.3 NW 15 20 8 11 1022.7 - 4.2
25/07:30am 8.5 4.8 7.9 96 0.3 NW 17 20 9 11 1022.2 - 4.2
25/07:00am 8.1 4.7 7.5 96 0.3 NW 15 20 8 11 1021.7 - 4.2
25/06:30am 7.7 4.2 7.1 96 0.3 NW 15 20 8 11 1021.4 - 4.2
25/06:00am 8.1 4.3 7.5 96 0.3 NW 17 20 9 11 1020.9 1020.9 4.0
25/05:30am 8.2 4.8 7.6 96 0.3 NW 15 20 8 11 1020.7 - 4.0
25/05:00am 8.1 4.3 7.5 96 0.3 NW 17 22 9 12 1020.3 - 4.0
25/04:30am 7.8 3.9 7.2 96 0.3 NW 17 20 9 11 1019.9 - 4.0
25/04:00am 8.1 4.7 7.5 96 0.3 NW 15 20 8 11 1019.8 - 4.0
25/03:30am 8.1 4.3 7.5 96 0.3 NW 17 20 9 11 1019.5 - 3.8
25/03:00am 8.3 4.9 7.7 96 0.3 NW 15 19 8 10 1019.3 1019.3 3.8
25/02:30am 8.2 4.8 7.6 96 0.3 NW 15 20 8 11 1019.1 - 3.8
25/02:00am 8.7 5.8 8.1 96 0.3 NW 13 19 7 10 1019.0 - 3.8
25/01:30am 8.5 5.2 7.9 96 0.3 NW 15 19 8 10 1018.9 - 3.8
25/01:00am 8.9 6.0 8.3 96 0.3 NW 13 19 7 10 1018.9 - 3.8
 
Date/Time
WST
Temp
°C
App
Temp
°C
Dew
Point
Rel
Hum
%
Delta-T
°C
Wind Press
QNH
hPa
Press
MSL
hPa
Rain
since 9 am
mm
Dir
 
Spd
km/h
Gust
km/h
Spd
kts
Gust
kts
24/10:00pm 9.5 6.7 8.7 95 0.4 NW 13 19 7 10 1018.7 - 3.6
24/09:30pm 9.7 7.0 8.8 94 0.4 NW 13 17 7 9 1018.5 - 3.6
24/09:00pm 9.9 7.2 9.0 94 0.4 NW 13 19 7 10 1018.4 1018.4 3.6
24/08:30pm 10.2 7.6 9.3 94 0.4 NW 13 17 7 9 1018.2 - 3.6
24/08:00pm 10.3 8.5 9.4 94 0.4 NW 9 13 5 7 1018.0 - 3.6
24/07:30pm 10.3 8.1 9.2 93 0.5 NW 11 15 6 8 1017.7 - 3.6
24/07:00pm 11.0 8.9 9.8 92 0.6 NW 11 13 6 7 1017.4 - 3.6
24/06:30pm 11.7 9.4 10.4 92 0.7 WNW 13 43 7 23 1017.1 - 3.4
24/06:00pm 11.7 9.4 10.3 91 0.7 W 13 24 7 13 1017.0 1017.0 3.2
24/05:30pm 11.4 8.2 10.0 91 0.7 WSW 17 24 9 13 1016.5 - 3.0
24/05:00pm 11.6 6.7 9.9 89 0.9 WSW 26 33 14 18 1016.6 - 1.4
24/04:30pm 13.2 8.6 9.8 80 1.7 SW 24 43 13 23 1015.8 - 0.0
24/04:00pm 14.5 9.9 9.7 73 2.5 WSW 24 35 13 19 1015.2 - 0.0
24/03:30pm 15.0 10.7 9.4 69 2.9 WSW 22 35 12 19 1014.8 - 0.0
24/03:00pm 15.4 11.4 8.9 65 3.3 WSW 20 33 11 18 1014.4 1014.4 0.0
24/02:30pm 15.7 10.8 7.0 56 4.3 WSW 22 33 12 18 1014.2 - 0.0
24/02:00pm 15.5 11.1 7.5 59 4.0 WSW 20 33 11 18 1014.3 - 0.0
24/01:30pm 15.3 10.7 8.1 62 3.6 WSW 22 32 12 17 1014.2 - 0.0
24/01:00pm 15.9 11.4 8.4 61 3.8 WSW 22 32 12 17 1014.4 - 0.0
24/12:30pm 15.8 11.1 7.6 58 4.1 WSW 22 32 12 17 1014.4 - 0.0
24/12:00pm 15.2 10.6 8.0 62 3.6 WSW 22 32 12 17 1014.9 1014.9 0.0
24/11:30am 16.7 13.2 8.7 59 4.1 W 17 28 9 15 1015.3 - 0.0
24/11:00am 15.2 11.8 9.1 67 3.1 WSW 17 26 9 14 1015.6 - 0.0
24/10:30am 14.9 11.2 9.3 69 2.9 W 19 28 10 15 1016.0 - 0.0
24/10:00am 15.7 12.2 10.2 70 2.9 W 19 26 10 14 1016.2 - 0.0
24/09:30am 14.2 11.1 10.2 77 2.1 W 17 28 9 15 1016.3 - 0.0
24/09:00am 12.9 9.5 11.1 89 0.9 W 20 30 11 16 1016.2 1016.2 0.2
24/08:30am 11.6 8.6 10.7 94 0.5 W 17 24 9 13 1016.0 - 0.2
24/08:00am 11.2 7.8 10.4 95 0.4 WNW 19 30 10 16 1015.8 - 0.2
24/07:30am 10.3 7.4 9.5 95 0.4 WNW 15 20 8 11 1015.4 - 0.2
24/07:00am 9.7 6.6 8.9 95 0.4 NW 15 24 8 13 1015.1 - 0.2
24/06:30am 9.4 6.6 8.6 95 0.4 NW 13 20 7 11 1014.8 - 0.2
24/06:00am 9.8 7.1 9.0 95 0.4 NNW 13 19 7 10 1014.9 1014.9 0.2
24/05:30am 9.5 6.7 8.7 95 0.4 NW 13 20 7 11 1014.8 - 0.2
24/05:00am 8.8 5.5 8.0 95 0.4 NW 15 22 8 12 1014.7 - 0.2
24/04:30am 8.3 4.9 7.5 95 0.4 NW 15 19 8 10 1014.6 - 0.0
24/04:00am 8.5 5.1 7.7 95 0.4 NW 15 19 8 10 1014.5 - 0.0
24/03:30am 8.7 5.7 7.9 95 0.4 NW 13 19 7 10 1014.6 - 0.0
24/03:00am 8.7 5.7 7.9 95 0.4 NW 13 19 7 10 1014.6 1014.6 0.0
24/02:30am 8.9 6.0 8.1 95 0.4 NW 13 17 7 9 1014.7 - 0.0
24/02:00am 9.0 5.7 8.2 95 0.4 NW 15 19 8 10 1014.8 - 0.0
24/01:30am 9.2 6.0 8.4 95 0.4 NW 15 20 8 11 1015.0 - 0.0
24/01:00am 8.8 5.5 8.0 95 0.4 NW 15 19 8 10 1015.0 - 0.0
24/12:30am 8.6 5.2 7.8 95 0.4 NW 15 19 8 10 1015.0 - 0.0
24/12:00am 8.7 5.4 7.9 95 0.4 NW 15 20 8 11 1015.1 1015.1 0.0
 
Date/Time
WST
Temp
°C
App
Temp
°C
Dew
Point
Rel
Hum
%
Delta-T
°C
Wind Press
QNH
hPa
Press
MSL
hPa
Rain
since 9 am
mm
Dir
 
Spd
km/h
Gust
km/h
Spd
kts
Gust
kts
23/11:30pm 8.9 5.6 8.1 95 0.4 NW 15 19 8 10 1015.2 - 0.0
23/11:00pm 9.1 5.8 8.2 94 0.4 NW 15 20 8 11 1015.3 - 0.0
23/10:30pm 9.1 5.8 8.2 94 0.4 NW 15 19 8 10 1015.3 - 0.0
23/10:00pm 9.2 6.0 8.3 94 0.4 NW 15 19 8 10 1015.6 - 0.0
23/09:30pm 9.3 6.0 8.2 93 0.5 NW 15 19 8 10 1015.6 - 0.0
23/09:00pm 9.9 6.8 8.7 92 0.6 WNW 15 19 8 10 1015.5 1015.5 0.0
23/08:30pm 10.7 8.1 9.3 91 0.7 W 13 17 7 9 1015.4 - 0.0
23/08:00pm 11.1 8.6 9.7 91 0.7 WNW 13 19 7 10 1015.4 - 0.0
23/07:30pm 11.3 9.2 9.6 89 0.9 WNW 11 15 6 8 1015.3 - 0.0
23/07:00pm 12.4 10.4 10.3 87 1.1 W 11 13 6 7 1015.1 - 0.0
23/06:30pm 13.3 11.2 11.2 87 1.1 W 13 20 7 11 1015.0 - 0.0
23/06:00pm 13.3 11.6 11.2 87 1.1 W 11 17 6 9 1014.6 1014.6 0.0
23/05:30pm 13.8 11.7 11.3 85 1.3 W 13 19 7 10 1014.7 - 0.0
23/05:00pm 14.0 12.0 11.5 85 1.3 W 13 20 7 11 1014.4 - 0.0
23/04:30pm 14.7 12.0 11.7 82 1.6 W 17 22 9 12 1014.1 - 0.0
23/04:00pm 15.5 12.5 11.9 79 2.0 W 19 26 10 14 1013.8 - 0.0
23/03:30pm 16.4 13.5 12.4 77 2.2 WSW 19 26 10 14 1013.3 - 0.0
23/03:00pm 16.7 14.0 12.8 78 2.2 WSW 19 26 10 14 1013.0 1013.0 0.0
23/02:30pm 17.0 14.3 12.9 77 2.3 WSW 19 26 10 14 1012.8 - 0.0
23/02:00pm 17.2 14.5 12.9 76 2.4 WSW 19 26 10 14 1012.5 - 0.0
23/01:30pm 17.2 14.2 12.5 74 2.6 WSW 20 30 11 16 1012.0 - 0.0
23/01:00pm 17.1 14.4 13.0 77 2.3 WSW 19 28 10 15 1012.0 - 0.0
23/12:30pm 17.1 14.2 12.8 76 2.4 WSW 20 30 11 16 1012.0 - 0.0
23/12:00pm 16.8 12.6 12.5 76 2.4 WSW 26 35 14 19 1012.1 1012.1 0.0
23/11:30am 16.7 13.7 12.7 77 2.2 WSW 20 32 11 17 1012.4 - 0.0
23/11:00am 16.3 13.4 12.3 77 2.2 WSW 19 28 10 15 1012.5 - 0.0
23/10:30am 15.7 12.8 12.3 80 1.9 WSW 19 28 10 15 1012.9 - 0.0
23/10:00am 14.9 12.2 12.8 87 1.2 WSW 19 26 10 14 1013.2 - 0.0
23/09:30am 15.0 12.6 13.7 92 0.7 WSW 19 28 10 15 1013.1 - 0.0
23/09:00am 14.3 12.9 13.3 94 0.6 W 13 19 7 10 1013.0 1013.0 18.2
23/08:30am 13.3 11.6 12.5 95 0.4 WNW 13 19 7 10 1012.7 - 18.2
23/08:00am 12.4 10.8 11.6 95 0.4 WNW 11 15 6 8 1012.3 - 18.2
23/07:30am 11.7 9.5 10.9 95 0.4 WNW 13 19 7 10 1012.1 - 18.2
23/07:00am 11.6 9.4 10.8 95 0.4 WNW 13 17 7 9 1011.6 - 18.2
23/06:30am 11.7 9.5 10.8 94 0.5 W 13 20 7 11 1011.3 - 18.2
23/06:00am 12.2 9.4 11.3 94 0.5 W 17 24 9 13 1010.8 1010.8 17.8
23/05:30am 12.2 7.7 11.3 94 0.5 WSW 26 41 14 22 1010.3 - 17.2
23/05:00am 12.4 8.0 11.6 95 0.4 SW 26 35 14 19 1010.0 - 15.4
23/04:30am 11.7 8.2 10.9 95 0.4 SW 20 30 11 16 1009.6 - 15.0
23/04:00am 11.1 8.8 10.3 95 0.4 WNW 13 17 7 9 1009.6 - 12.8
23/03:30am 11.1 8.7 10.2 94 0.5 W 13 19 7 10 1009.5 - 10.0
23/03:00am 11.1 8.4 10.2 94 0.5 W 15 19 8 10 1009.6 1009.6 7.6
23/02:30am 11.1 8.4 10.2 94 0.5 W 15 20 8 11 1009.7 - 6.0
23/02:00am 11.8 9.6 10.9 94 0.5 W 13 17 7 9 1009.7 - 5.6
23/01:30am 11.6 9.0 10.7 94 0.5 SW 15 19 8 10 1009.8 - 5.6
23/01:00am 12.0 8.7 10.9 93 0.6 SW 19 30 10 16 1010.0 - 4.6
23/12:30am 12.3 9.1 11.2 93 0.6 S 19 20 10 11 1010.0 - 4.2
23/12:00am 12.1 12.3 10.7 91 0.7 CALM 0 6 0 3 1010.2 1010.2 3.6

Other Formats:

Comma delimited format used in spreadsheet applications
http://www.bom.gov.au/fwo/IDW60801/IDW60801.94644.axf

JavaScript Object Notation format (JSON) in row-major order
http://www.bom.gov.au/fwo/IDW60801/IDW60801.94644.json